createdAt,value
2023-04-16T00:26:08.207Z,9.9
2023-04-16T00:55:28.567Z,9.8
2023-04-16T01:24:39.269Z,9.8
2023-04-16T01:54:02.293Z,9.7
2023-04-16T02:23:20.498Z,9.6
2023-04-16T02:52:42.367Z,9.5
2023-04-16T03:22:02.890Z,9.4
2023-04-16T03:51:24.948Z,9.4
2023-04-16T04:20:25.510Z,9.4
2023-04-16T04:49:28.706Z,9.3
2023-04-16T05:18:35.333Z,9.2
2023-04-16T05:47:39.810Z,9.3
2023-04-16T06:16:46.323Z,9.2
2023-04-16T06:45:49.833Z,9.1
2023-04-16T07:14:59.965Z,9.1
2023-04-16T07:44:20.989Z,9.1
2023-04-16T08:13:33.585Z,9.2
2023-04-16T08:42:18.723Z,9.3
2023-04-16T09:11:27.169Z,9.4
2023-04-16T09:40:48.280Z,9.6
2023-04-16T10:10:01.279Z,10.2
2023-04-16T10:39:22.057Z,10.7
2023-04-16T11:08:55.190Z,11.1
2023-04-16T11:37:33.987Z,11.2
2023-04-16T12:06:47.733Z,11.5
2023-04-16T12:36:10.220Z,11.6
2023-04-16T13:05:19.060Z,11.4
2023-04-16T13:34:30.233Z,11.1
2023-04-16T14:03:45.460Z,11.1
2023-04-16T14:32:53.809Z,11.2
2023-04-16T15:02:05.030Z,11.3
2023-04-16T15:31:18.272Z,11.2
2023-04-16T16:00:34.961Z,11.1
2023-04-16T16:29:51.835Z,10.9
2023-04-16T16:59:13.668Z,10.5
2023-04-16T17:28:21.855Z,10.3
2023-04-16T17:57:38.362Z,10.1
2023-04-16T18:26:56.052Z,10
2023-04-16T18:56:10.841Z,9.8
2023-04-16T19:25:31.419Z,9.7
2023-04-16T19:54:48.800Z,9.6
2023-04-16T20:24:06.380Z,9.6
2023-04-16T20:53:20.261Z,9.6
2023-04-16T21:22:41.017Z,9.5
2023-04-16T21:51:57.194Z,9.5
2023-04-16T22:21:17.345Z,9.5
2023-04-16T22:50:37.722Z,9.4
2023-04-16T23:19:55.162Z,9.4
2023-04-16T23:49:04.493Z,9.4
